createdAt,value
2023-03-25T00:02:37.936Z,13.40
2023-03-25T00:05:24.324Z,13.30
2023-03-25T00:08:10.801Z,13.20
2023-03-25T00:10:58.610Z,13.00
2023-03-25T00:13:44.606Z,13.20
2023-03-25T00:16:31.256Z,13.20
2023-03-25T00:19:18.470Z,13.10
2023-03-25T00:22:04.180Z,13.10
2023-03-25T00:24:49.810Z,13.00
2023-03-25T00:27:36.647Z,13.20
2023-03-25T00:30:22.717Z,13.00
2023-03-25T00:33:13.266Z,12.90
2023-03-25T00:36:00.262Z,12.90
2023-03-25T00:38:49.199Z,12.70
2023-03-25T00:41:37.151Z,12.70
2023-03-25T00:44:23.426Z,12.80
2023-03-25T00:47:11.580Z,12.90
2023-03-25T00:49:57.470Z,13.00
2023-03-25T00:52:44.340Z,12.90
2023-03-25T00:55:30.491Z,12.60
2023-03-25T00:58:16.411Z,12.50
2023-03-25T01:01:07.745Z,12.60
2023-03-25T01:03:59.917Z,12.80
2023-03-25T01:06:45.676Z,12.90
2023-03-25T01:09:33.855Z,12.70
2023-03-25T01:12:19.770Z,12.70
2023-03-25T01:15:07.011Z,13.00
2023-03-25T01:17:52.851Z,12.90
2023-03-25T01:20:39.528Z,12.70
2023-03-25T01:23:25.470Z,12.90
2023-03-25T01:26:15.492Z,12.70
2023-03-25T01:29:02.238Z,12.70
2023-03-25T01:31:50.691Z,12.90
2023-03-25T01:34:38.592Z,12.80
2023-03-25T01:37:25.701Z,13.10
2023-03-25T01:40:18.398Z,13.30
2023-03-25T01:43:09.813Z,13.20
2023-03-25T01:45:55.709Z,13.20
2023-03-25T01:48:44.396Z,13.10
2023-03-25T01:51:32.540Z,12.90
2023-03-25T01:54:18.955Z,12.90
2023-03-25T01:57:06.477Z,12.70
2023-03-25T01:59:55.394Z,12.60
2023-03-25T02:02:42.626Z,12.80
2023-03-25T02:05:36.002Z,12.90
2023-03-25T02:08:23.055Z,12.70
2023-03-25T02:11:10.133Z,12.50
2023-03-25T02:13:57.310Z,12.40
2023-03-25T02:16:51.672Z,12.20
2023-03-25T02:20:19.203Z,12.50
2023-03-25T02:23:41.984Z,12.30
2023-03-25T02:26:56.441Z,12.40
2023-03-25T02:30:14.949Z,12.30
2023-03-25T02:33:22.600Z,12.30
2023-03-25T02:36:31.056Z,11.90
2023-03-25T02:39:22.979Z,11.70
2023-03-25T02:42:15.679Z,11.80
2023-03-25T02:45:06.605Z,11.90
2023-03-25T02:47:57.480Z,11.80
2023-03-25T02:50:48.607Z,11.70
2023-03-25T02:53:36.418Z,11.70
2023-03-25T02:56:26.529Z,11.60
2023-03-25T02:59:14.296Z,11.50
2023-03-25T03:02:03.831Z,11.60
2023-03-25T03:04:52.382Z,11.50
2023-03-25T03:07:45.655Z,11.50
2023-03-25T03:10:41.543Z,11.50
2023-03-25T03:13:38.652Z,11.60
2023-03-25T03:16:32.631Z,11.80
2023-03-25T03:19:34.237Z,11.60
2023-03-25T03:22:34.829Z,11.60
2023-03-25T03:25:30.351Z,11.50
2023-03-25T03:28:24.639Z,11.30
2023-03-25T03:31:50.852Z,11.30
2023-03-25T03:34:30.691Z,11.30
2023-03-25T03:37:20.950Z,11.30
2023-03-25T03:40:11.241Z,11.30
2023-03-25T03:43:00.490Z,11.40
2023-03-25T03:45:50.607Z,11.40
2023-03-25T03:48:43.225Z,11.40
2023-03-25T03:51:33.803Z,11.50
2023-03-25T03:54:21.284Z,11.30
2023-03-25T03:57:09.932Z,11.30
2023-03-25T03:59:57.729Z,11.40
2023-03-25T04:02:47.702Z,11.30
2023-03-25T04:05:36.662Z,11.60
2023-03-25T04:08:26.536Z,11.60
2023-03-25T04:11:16.482Z,11.80
2023-03-25T04:14:02.879Z,11.90
2023-03-25T04:16:48.203Z,11.90
2023-03-25T04:19:35.039Z,12.10
2023-03-25T04:22:22.335Z,12.20
2023-03-25T04:25:08.043Z,11.90
2023-03-25T04:27:59.044Z,11.80
2023-03-25T04:30:45.360Z,11.60
2023-03-25T04:33:32.130Z,11.60
2023-03-25T04:36:18.262Z,11.60
2023-03-25T04:39:05.275Z,11.80
2023-03-25T04:41:50.537Z,11.80
2023-03-25T04:44:39.324Z,12.10
2023-03-25T04:47:25.354Z,11.80
2023-03-25T04:50:16.595Z,11.80
2023-03-25T04:53:02.450Z,11.60
2023-03-25T04:55:50.531Z,11.50
2023-03-25T04:58:36.894Z,11.60
2023-03-25T05:01:23.998Z,11.50
2023-03-25T05:04:12.484Z,11.60
2023-03-25T05:06:57.846Z,11.60
2023-03-25T05:09:46.431Z,11.50
2023-03-25T05:12:33.577Z,11.60
2023-03-25T05:15:19.122Z,11.70
2023-03-25T05:18:04.539Z,12.00
2023-03-25T05:20:51.107Z,11.90
2023-03-25T05:23:36.899Z,12.10
2023-03-25T05:26:22.659Z,12.40
2023-03-25T05:29:10.470Z,12.10
2023-03-25T05:31:55.772Z,11.90
2023-03-25T05:34:41.559Z,11.90
2023-03-25T05:37:27.580Z,11.80
2023-03-25T05:40:15.167Z,11.70
2023-03-25T05:43:01.167Z,11.80
2023-03-25T05:45:48.310Z,11.60
2023-03-25T05:48:35.638Z,11.50
2023-03-25T05:51:21.960Z,11.20
2023-03-25T05:54:11.665Z,11.30
2023-03-25T05:56:57.930Z,11.50
2023-03-25T05:59:43.560Z,11.40
2023-03-25T06:02:30.613Z,11.30
2023-03-25T06:05:16.540Z,11.20
2023-03-25T06:08:02.037Z,11.50
2023-03-25T06:10:48.313Z,11.40
2023-03-25T06:13:34.009Z,11.40
2023-03-25T06:16:20.417Z,11.20
2023-03-25T06:19:09.414Z,11.30
2023-03-25T06:21:55.146Z,11.40
2023-03-25T06:24:41.575Z,11.60
2023-03-25T06:27:27.999Z,11.80
2023-03-25T06:30:14.740Z,11.60
2023-03-25T06:33:05.962Z,11.50
2023-03-25T06:35:53.648Z,11.60
2023-03-25T06:38:39.634Z,11.50
2023-03-25T06:41:28.860Z,11.60
2023-03-25T06:44:35.201Z,11.80
2023-03-25T06:47:52.226Z,11.60
2023-03-25T06:50:37.568Z,11.40
2023-03-25T06:53:24.480Z,11.30
2023-03-25T06:56:10.299Z,11.40
2023-03-25T06:58:55.821Z,11.60
2023-03-25T07:01:42.905Z,11.60
2023-03-25T07:04:28.861Z,11.70
2023-03-25T07:07:14.172Z,11.90
2023-03-25T07:10:01.052Z,11.90
2023-03-25T07:12:46.651Z,12.10
2023-03-25T07:15:32.097Z,11.80
2023-03-25T07:18:17.762Z,11.80
2023-03-25T07:21:04.543Z,11.90
2023-03-25T07:23:50.183Z,12.00
2023-03-25T07:26:37.160Z,12.00
2023-03-25T07:29:23.297Z,11.90
2023-03-25T07:32:08.922Z,12.00
2023-03-25T07:34:54.480Z,11.90
2023-03-25T07:37:40.267Z,11.70
2023-03-25T07:40:26.025Z,11.70
2023-03-25T07:43:12.815Z,11.60
2023-03-25T07:46:13.640Z,11.70
2023-03-25T07:48:59.217Z,11.70
2023-03-25T07:51:44.640Z,11.70
2023-03-25T07:54:30.163Z,11.70
2023-03-25T07:57:16.075Z,11.80
2023-03-25T08:00:06.020Z,12.30
2023-03-25T08:02:57.588Z,12.70
2023-03-25T08:05:45.382Z,13.00
2023-03-25T08:08:31.106Z,13.00
2023-03-25T08:11:16.763Z,13.30
2023-03-25T08:14:02.493Z,13.60
2023-03-25T08:16:49.425Z,13.90
2023-03-25T08:19:35.091Z,13.50
2023-03-25T08:22:20.628Z,13.40
2023-03-25T08:25:06.560Z,13.30
2023-03-25T08:27:53.952Z,13.40
2023-03-25T08:30:39.969Z,13.30
2023-03-25T08:33:39.552Z,13.40
2023-03-25T08:36:25.209Z,13.60
2023-03-25T08:39:12.113Z,13.80
2023-03-25T08:41:59.144Z,13.60
2023-03-25T08:44:45.088Z,14.00
2023-03-25T08:47:30.761Z,14.00
2023-03-25T08:50:17.964Z,13.80
2023-03-25T08:53:03.709Z,13.60
2023-03-25T08:55:51.213Z,13.50
2023-03-25T08:58:36.966Z,13.10
2023-03-25T09:01:24.371Z,13.10
2023-03-25T09:04:09.880Z,12.90
2023-03-25T09:07:11.411Z,12.70
2023-03-25T09:09:57.837Z,12.70
2023-03-25T09:12:44.269Z,12.80
2023-03-25T09:15:29.997Z,12.70
2023-03-25T09:18:15.592Z,12.40
2023-03-25T09:21:01.133Z,12.50
2023-03-25T09:23:48.048Z,12.70
2023-03-25T09:26:34.348Z,12.60
2023-03-25T09:29:19.734Z,12.60
2023-03-25T09:32:05.709Z,12.80
2023-03-25T09:34:51.427Z,12.90
2023-03-25T09:37:37.720Z,13.20
2023-03-25T09:40:24.777Z,12.90
2023-03-25T09:43:21.596Z,13.10
2023-03-25T09:46:07.975Z,13.30
2023-03-25T09:48:57.530Z,13.80
2023-03-25T09:51:43.676Z,14.10
2023-03-25T09:54:31.885Z,14.60
2023-03-25T09:57:22.322Z,15.40
2023-03-25T10:00:16.726Z,16.30
2023-03-25T10:03:07.846Z,16.10
2023-03-25T10:06:13.299Z,16.00
2023-03-25T10:09:23.096Z,16.00
2023-03-25T10:12:12.977Z,15.20
2023-03-25T10:15:04.003Z,14.60
2023-03-25T10:17:58.689Z,14.40
2023-03-25T10:20:47.138Z,14.30
2023-03-25T10:23:36.422Z,14.40
2023-03-25T10:26:25.679Z,14.70
2023-03-25T10:29:13.242Z,14.70
2023-03-25T10:32:03.245Z,14.00
2023-03-25T10:34:50.056Z,14.20
2023-03-25T10:37:39.445Z,13.90
2023-03-25T10:40:27.396Z,14.00
2023-03-25T10:43:17.019Z,13.50
2023-03-25T10:46:08.226Z,13.40
2023-03-25T10:48:55.640Z,13.60
2023-03-25T10:51:43.428Z,13.60
2023-03-25T10:54:31.754Z,13.70
2023-03-25T10:57:18.966Z,13.70
2023-03-25T11:00:12.716Z,13.40
2023-03-25T11:02:58.567Z,13.50
2023-03-25T11:05:45.662Z,13.50
2023-03-25T11:08:31.379Z,13.60
2023-03-25T11:11:17.026Z,13.80
2023-03-25T11:14:02.505Z,13.70
2023-03-25T11:16:52.456Z,13.60
2023-03-25T11:19:40.151Z,13.60
2023-03-25T11:22:28.564Z,13.60
2023-03-25T11:25:16.918Z,13.60
2023-03-25T11:28:05.339Z,13.40
2023-03-25T11:31:10.953Z,13.60
2023-03-25T11:34:06.832Z,13.90
2023-03-25T11:36:55.246Z,13.70
2023-03-25T11:39:42.516Z,13.80
2023-03-25T11:42:32.593Z,14.00
2023-03-25T11:45:22.507Z,15.30
2023-03-25T11:48:10.390Z,16.00
2023-03-25T11:50:57.429Z,16.50
2023-03-25T11:53:45.225Z,16.60
2023-03-25T11:56:34.170Z,17.40
2023-03-25T11:59:22.894Z,17.60
2023-03-25T12:02:17.955Z,17.00
2023-03-25T12:05:12.275Z,16.50
2023-03-25T12:08:01.740Z,16.00
2023-03-25T12:10:53.178Z,15.80
2023-03-25T12:13:51.449Z,16.40
2023-03-25T12:16:40.708Z,16.20
2023-03-25T12:19:32.095Z,15.70
2023-03-25T12:22:23.416Z,15.60
2023-03-25T12:25:15.117Z,15.30
2023-03-25T12:28:05.484Z,14.80
2023-03-25T12:30:58.618Z,14.20
2023-03-25T12:33:49.129Z,13.90
2023-03-25T12:36:39.328Z,13.60
2023-03-25T12:39:42.093Z,13.40
2023-03-25T12:42:36.350Z,13.00
2023-03-25T12:45:31.729Z,12.60
2023-03-25T12:48:24.733Z,12.70
2023-03-25T12:51:17.206Z,12.90
2023-03-25T12:54:08.716Z,13.70
2023-03-25T12:57:00.436Z,14.20
2023-03-25T12:59:55.966Z,15.20
2023-03-25T13:03:00.869Z,16.30
2023-03-25T13:05:52.389Z,17.30
2023-03-25T13:08:42.057Z,17.10
2023-03-25T13:11:30.628Z,16.60
2023-03-25T13:14:18.715Z,15.70
2023-03-25T13:17:07.418Z,15.60
2023-03-25T13:19:59.834Z,15.90
2023-03-25T13:22:48.449Z,15.90
2023-03-25T13:25:38.271Z,15.90
2023-03-25T13:28:27.145Z,15.90
2023-03-25T13:31:14.575Z,16.10
2023-03-25T13:34:03.795Z,16.20
2023-03-25T13:36:53.311Z,16.00
2023-03-25T13:39:57.894Z,16.30
2023-03-25T13:42:46.600Z,16.20
2023-03-25T13:45:34.064Z,16.30
2023-03-25T13:48:23.617Z,16.40
2023-03-25T13:51:09.533Z,16.80
2023-03-25T13:53:57.245Z,17.20
2023-03-25T13:57:06.433Z,16.70
2023-03-25T14:00:07.389Z,16.20
2023-03-25T14:03:12.488Z,15.60
2023-03-25T14:06:25.156Z,14.90
2023-03-25T14:09:22.554Z,14.80
2023-03-25T14:12:11.313Z,14.70
2023-03-25T14:15:00.808Z,15.00
2023-03-25T14:17:47.041Z,15.30
2023-03-25T14:20:33.534Z,15.20
2023-03-25T14:23:20.989Z,15.00
2023-03-25T14:26:09.343Z,14.40
2023-03-25T14:28:58.166Z,13.60
2023-03-25T14:31:58.756Z,13.00
2023-03-25T14:34:44.945Z,12.80
2023-03-25T14:37:32.077Z,12.60
2023-03-25T14:40:36.181Z,12.60
2023-03-25T14:43:23.994Z,13.00
2023-03-25T14:46:23.475Z,13.00
2023-03-25T14:49:19.051Z,13.60
2023-03-25T14:52:06.630Z,13.60
2023-03-25T14:54:53.103Z,13.80
2023-03-25T14:57:40.745Z,13.90
2023-03-25T15:00:29.770Z,14.10
2023-03-25T15:03:18.164Z,14.00
2023-03-25T15:06:04.139Z,13.90
2023-03-25T15:08:51.977Z,14.00
2023-03-25T15:11:38.712Z,14.10
2023-03-25T15:14:26.168Z,14.10
2023-03-25T15:17:31.726Z,14.50
2023-03-25T15:20:29.623Z,14.70
2023-03-25T15:23:32.738Z,15.00
2023-03-25T15:26:20.998Z,15.20
2023-03-25T15:29:21.166Z,15.10
2023-03-25T15:32:20.661Z,15.30
2023-03-25T15:35:14.491Z,15.40
2023-03-25T15:38:30.520Z,15.30
2023-03-25T15:41:22.853Z,15.30
2023-03-25T15:44:20.721Z,15.50
2023-03-25T15:47:22.387Z,15.30
2023-03-25T15:50:26.489Z,15.60
2023-03-25T15:53:41.799Z,15.60
2023-03-25T15:56:31.598Z,15.70
2023-03-25T15:59:27.259Z,15.60
2023-03-25T16:02:17.338Z,15.50
2023-03-25T16:05:03.780Z,14.90
2023-03-25T16:07:50.015Z,15.00
2023-03-25T16:10:36.544Z,15.00
2023-03-25T16:13:23.974Z,15.10
2023-03-25T16:16:10.362Z,15.30
2023-03-25T16:18:56.078Z,15.30
2023-03-25T16:21:42.119Z,15.40
2023-03-25T16:24:29.765Z,15.30
2023-03-25T16:27:20.068Z,15.50
2023-03-25T16:30:18.605Z,15.70
2023-03-25T16:33:05.276Z,15.60
2023-03-25T16:35:54.115Z,15.20
2023-03-25T16:38:39.770Z,15.30
2023-03-25T16:41:25.901Z,15.50
2023-03-25T16:44:13.683Z,15.30
2023-03-25T16:47:01.382Z,15.20
2023-03-25T16:49:47.979Z,15.00
2023-03-25T16:52:34.210Z,15.10
2023-03-25T16:55:27.674Z,15.10
2023-03-25T16:58:15.001Z,15.10
2023-03-25T17:01:01.399Z,15.40
2023-03-25T17:03:48.937Z,15.30
2023-03-25T17:06:35.311Z,15.30
2023-03-25T17:09:21.693Z,15.20
2023-03-25T17:12:08.719Z,14.90
2023-03-25T17:14:56.658Z,15.00
2023-03-25T17:17:43.615Z,14.90
2023-03-25T17:20:34.638Z,14.80
2023-03-25T17:23:22.027Z,14.90
2023-03-25T17:26:08.349Z,14.50
2023-03-25T17:28:58.449Z,14.50
2023-03-25T17:31:53.642Z,14.50
2023-03-25T17:34:45.332Z,14.50
2023-03-25T17:37:32.215Z,14.20
2023-03-25T17:40:20.713Z,13.80
2023-03-25T17:43:06.188Z,13.70
2023-03-25T17:45:53.122Z,13.70
2023-03-25T17:48:38.436Z,13.70
2023-03-25T17:51:28.648Z,13.70
2023-03-25T17:54:15.786Z,13.80
2023-03-25T17:57:02.083Z,13.90
2023-03-25T17:59:47.881Z,14.10
2023-03-25T18:02:33.326Z,14.30
2023-03-25T18:05:19.070Z,14.20
2023-03-25T18:08:05.317Z,14.10
2023-03-25T18:10:53.082Z,13.90
2023-03-25T18:13:39.094Z,13.80
2023-03-25T18:16:24.534Z,13.80
2023-03-25T18:19:13.554Z,13.90
2023-03-25T18:22:06.930Z,13.80
2023-03-25T18:24:59.394Z,13.90
2023-03-25T18:27:50.994Z,13.80
2023-03-25T18:30:38.307Z,13.70
2023-03-25T18:33:23.899Z,13.70
2023-03-25T18:36:09.853Z,13.60
2023-03-25T18:38:55.721Z,13.70
2023-03-25T18:41:41.752Z,13.70
2023-03-25T18:44:30.735Z,13.60
2023-03-25T18:47:16.917Z,13.60
2023-03-25T18:50:02.328Z,13.30
2023-03-25T18:52:47.847Z,13.40
2023-03-25T18:55:34.107Z,13.40
2023-03-25T18:58:20.529Z,13.20
2023-03-25T19:01:09.872Z,13.00
2023-03-25T19:04:02.356Z,13.00
2023-03-25T19:06:48.344Z,12.90
2023-03-25T19:09:34.431Z,12.90
2023-03-25T19:12:19.603Z,12.90
2023-03-25T19:15:05.935Z,12.70
2023-03-25T19:17:53.363Z,12.90
2023-03-25T19:20:40.929Z,12.70
2023-03-25T19:23:27.067Z,12.50
2023-03-25T19:26:13.540Z,12.50
2023-03-25T19:28:59.508Z,12.50
2023-03-25T19:31:45.081Z,12.30
2023-03-25T19:34:35.457Z,12.30
2023-03-25T19:37:20.823Z,12.60
2023-03-25T19:40:08.555Z,12.70
2023-03-25T19:42:55.447Z,12.70
2023-03-25T19:45:41.389Z,12.70
2023-03-25T19:48:29.557Z,12.60
2023-03-25T19:51:17.043Z,12.40
2023-03-25T19:54:02.855Z,12.60
2023-03-25T19:56:48.999Z,12.50
2023-03-25T19:59:34.440Z,12.60
2023-03-25T20:02:20.090Z,12.40
2023-03-25T20:05:05.990Z,12.40
2023-03-25T20:07:54.980Z,12.30
2023-03-25T20:10:41.410Z,12.30
2023-03-25T20:13:27.223Z,12.40
2023-03-25T20:16:13.297Z,12.40
2023-03-25T20:18:58.882Z,12.60
2023-03-25T20:21:44.330Z,12.60
2023-03-25T20:24:31.233Z,12.40
2023-03-25T20:27:17.210Z,12.50
2023-03-25T20:30:03.796Z,12.40
2023-03-25T20:32:53.302Z,12.30
2023-03-25T20:35:39.242Z,12.30
2023-03-25T20:38:24.787Z,12.40
2023-03-25T20:41:11.840Z,12.60
2023-03-25T20:43:57.644Z,12.60
2023-03-25T20:46:46.307Z,12.40
2023-03-25T20:49:32.053Z,12.30
2023-03-25T20:52:17.669Z,12.50
2023-03-25T20:55:03.660Z,12.40
2023-03-25T20:57:51.949Z,12.30
2023-03-25T21:00:37.450Z,12.10
2023-03-25T21:03:23.460Z,12.00
2023-03-25T21:06:22.844Z,11.90
2023-03-25T21:09:10.836Z,12.10
2023-03-25T21:11:56.629Z,12.00
2023-03-25T21:14:44.250Z,12.10
2023-03-25T21:17:32.147Z,12.30
2023-03-25T21:20:17.546Z,12.20
2023-03-25T21:23:05.347Z,12.30
2023-03-25T21:25:52.063Z,12.10
2023-03-25T21:28:38.268Z,12.40
2023-03-25T21:31:25.799Z,12.50
2023-03-25T21:34:15.988Z,12.60
2023-03-25T21:37:03.423Z,12.50
2023-03-25T21:39:50.464Z,12.60
2023-03-25T21:42:38.511Z,12.60
2023-03-25T21:45:25.685Z,12.80
2023-03-25T21:48:15.440Z,12.70
2023-03-25T21:51:01.412Z,12.60
2023-03-25T21:53:47.442Z,12.50
2023-03-25T21:56:35.168Z,12.40
2023-03-25T21:59:24.339Z,12.50
2023-03-25T22:02:14.620Z,12.70
2023-03-25T22:05:05.921Z,12.80
2023-03-25T22:07:52.336Z,12.50
2023-03-25T22:10:38.535Z,12.80
2023-03-25T22:13:24.671Z,12.70
2023-03-25T22:16:12.175Z,12.60
2023-03-25T22:18:57.851Z,12.60
2023-03-25T22:21:44.981Z,12.60
2023-03-25T22:24:31.333Z,12.40
2023-03-25T22:27:16.855Z,12.20
2023-03-25T22:30:02.542Z,12.30
2023-03-25T22:32:50.810Z,12.30
2023-03-25T22:35:41.520Z,12.60
2023-03-25T22:38:31.110Z,12.70
2023-03-25T22:41:17.962Z,12.50
2023-03-25T22:44:03.489Z,12.30
2023-03-25T22:46:49.657Z,12.30
2023-03-25T22:49:35.929Z,12.20
2023-03-25T22:52:21.679Z,12.70
2023-03-25T22:55:09.626Z,12.70
2023-03-25T22:57:55.285Z,12.80
2023-03-25T23:00:40.951Z,12.90
2023-03-25T23:03:27.446Z,12.60
2023-03-25T23:06:14.209Z,12.60
2023-03-25T23:08:59.630Z,12.50
2023-03-25T23:11:48.150Z,12.60
2023-03-25T23:14:33.718Z,12.70
2023-03-25T23:17:19.207Z,12.70
2023-03-25T23:20:08.373Z,12.60
2023-03-25T23:22:53.980Z,12.60
2023-03-25T23:25:39.515Z,12.80
2023-03-25T23:28:26.822Z,12.80
2023-03-25T23:31:13.296Z,12.60
2023-03-25T23:33:59.825Z,12.80
2023-03-25T23:36:46.609Z,13.00
2023-03-25T23:39:32.192Z,13.10
2023-03-25T23:42:17.997Z,13.10
2023-03-25T23:45:05.274Z,13.30
2023-03-25T23:47:51.335Z,13.00
2023-03-25T23:50:36.593Z,13.20
2023-03-25T23:53:22.449Z,13.30
2023-03-25T23:56:08.278Z,13.10
2023-03-25T23:58:53.799Z,13.30
